sensor_id;sensor_type;location;lat;lon;timestamp;temperature;humidity
20463;DHT22;10390;53.566;9.980;2022-08-11T00:00:09;28.80;1.00
20463;DHT22;10390;53.566;9.980;2022-08-11T00:02:47;28.80;1.00
20463;DHT22;10390;53.566;9.980;2022-08-11T00:05:20;28.80;1.00
20463;DHT22;10390;53.566;9.980;2022-08-11T00:07:52;28.80;1.00
20463;DHT22;10390;53.566;9.980;2022-08-11T00:10:22;28.80;1.00
20463;DHT22;10390;53.566;9.980;2022-08-11T00:12:57;28.80;1.00
20463;DHT22;10390;53.566;9.980;2022-08-11T00:15:27;28.80;1.00
20463;DHT22;10390;53.566;9.980;2022-08-11T00:18:01;28.80;1.00
20463;DHT22;10390;53.566;9.980;2022-08-11T00:20:32;28.70;1.00
20463;DHT22;10390;53.566;9.980;2022-08-11T00:23:11;28.70;1.00
20463;DHT22;10390;53.566;9.980;2022-08-11T00:25:48;28.70;1.00
20463;DHT22;10390;53.566;9.980;2022-08-11T00:28:26;28.70;1.00
20463;DHT22;10390;53.566;9.980;2022-08-11T00:31:01;28.70;1.00
20463;DHT22;10390;53.566;9.980;2022-08-11T00:33:38;28.70;1.00
20463;DHT22;10390;53.566;9.980;2022-08-11T00:36:08;28.70;1.00
20463;DHT22;10390;53.566;9.980;2022-08-11T00:38:37;28.70;1.00
20463;DHT22;10390;53.566;9.980;2022-08-11T00:45:00;28.70;1.00
20463;DHT22;10390;53.566;9.980;2022-08-11T01:22:48;28.60;1.00
20463;DHT22;10390;53.566;9.980;2022-08-11T01:29:07;28.50;1.00
20463;DHT22;10390;53.566;9.980;2022-08-11T01:47:12;28.40;1.00
20463;DHT22;10390;53.566;9.980;2022-08-11T01:58:55;28.40;1.00
20463;DHT22;10390;53.566;9.980;2022-08-11T02:01:44;28.40;1.00
20463;DHT22;10390;53.566;9.980;2022-08-11T02:04:37;28.40;1.00
20463;DHT22;10390;53.566;9.980;2022-08-11T02:10:33;28.40;1.00
20463;DHT22;10390;53.566;9.980;2022-08-11T02:18:49;28.40;1.00
20463;DHT22;10390;53.566;9.980;2022-08-11T02:21:59;28.40;1.00
20463;DHT22;10390;53.566;9.980;2022-08-11T02:27:40;28.40;1.00
20463;DHT22;10390;53.566;9.980;2022-08-11T02:30:13;28.40;1.00
20463;DHT22;10390;53.566;9.980;2022-08-11T02:32:51;28.40;1.00
20463;DHT22;10390;53.566;9.980;2022-08-11T02:35:54;28.30;1.00
20463;DHT22;10390;53.566;9.980;2022-08-11T02:38:44;28.30;1.00
20463;DHT22;10390;53.566;9.980;2022-08-11T02:44:23;28.30;1.00
20463;DHT22;10390;53.566;9.980;2022-08-11T02:47:05;28.30;1.00
20463;DHT22;10390;53.566;9.980;2022-08-11T02:49:50;28.30;1.00
20463;DHT22;10390;53.566;9.980;2022-08-11T02:52:46;28.30;1.00
20463;DHT22;10390;53.566;9.980;2022-08-11T02:58:40;28.20;1.00
20463;DHT22;10390;53.566;9.980;2022-08-11T03:01:57;28.30;1.00
20463;DHT22;10390;53.566;9.980;2022-08-11T03:04:39;28.20;1.00
20463;DHT22;10390;53.566;9.980;2022-08-11T03:07:31;28.20;1.00
20463;DHT22;10390;53.566;9.980;2022-08-11T03:13:07;28.20;1.00
20463;DHT22;10390;53.566;9.980;2022-08-11T03:16:20;28.20;1.00
20463;DHT22;10390;53.566;9.980;2022-08-11T03:19:17;28.20;1.00
20463;DHT22;10390;53.566;9.980;2022-08-11T03:21:53;28.10;1.00
20463;DHT22;10390;53.566;9.980;2022-08-11T03:24:47;28.20;1.00
20463;DHT22;10390;53.566;9.980;2022-08-11T03:33:31;28.10;1.00
20463;DHT22;10390;53.566;9.980;2022-08-11T03:38:55;28.10;1.00
20463;DHT22;10390;53.566;9.980;2022-08-11T03:56:22;28.10;1.00
20463;DHT22;10390;53.566;9.980;2022-08-11T04:05:34;28.10;1.00
20463;DHT22;10390;53.566;9.980;2022-08-11T04:08:29;28.10;1.00
20463;DHT22;10390;53.566;9.980;2022-08-11T04:46:32;28.10;1.00
20463;DHT22;10390;53.566;9.980;2022-08-11T04:49:43;28.10;1.00
20463;DHT22;10390;53.566;9.980;2022-08-11T04:56:10;28.10;1.00
20463;DHT22;10390;53.566;9.980;2022-08-11T05:05:22;28.10;1.00
20463;DHT22;10390;53.566;9.980;2022-08-11T05:17:11;28.20;1.00
20463;DHT22;10390;53.566;9.980;2022-08-11T05:19:58;28.10;1.00
20463;DHT22;10390;53.566;9.980;2022-08-11T05:22:51;28.20;1.00
20463;DHT22;10390;53.566;9.980;2022-08-11T05:25:36;28.20;1.00
20463;DHT22;10390;53.566;9.980;2022-08-11T05:28:34;28.20;1.00
20463;DHT22;10390;53.566;9.980;2022-08-11T05:31:25;28.20;1.00
20463;DHT22;10390;53.566;9.980;2022-08-11T05:35:05;28.20;1.00
20463;DHT22;10390;53.566;9.980;2022-08-11T05:37:42;28.30;1.00
20463;DHT22;10390;53.566;9.980;2022-08-11T05:40:28;28.30;1.00
20463;DHT22;10390;53.566;9.980;2022-08-11T05:43:14;28.30;1.00
20463;DHT22;10390;53.566;9.980;2022-08-11T05:46:04;28.30;1.00
20463;DHT22;10390;53.566;9.980;2022-08-11T05:48:50;28.30;1.00
20463;DHT22;10390;53.566;9.980;2022-08-11T05:51:38;28.40;1.00
20463;DHT22;10390;53.566;9.980;2022-08-11T05:54:25;28.40;1.00
20463;DHT22;10390;53.566;9.980;2022-08-11T05:57:22;28.40;1.00
20463;DHT22;10390;53.566;9.980;2022-08-11T06:00:01;28.40;1.00
20463;DHT22;10390;53.566;9.980;2022-08-11T06:02:30;28.40;1.00
20463;DHT22;10390;53.566;9.980;2022-08-11T06:04:57;28.50;1.00
20463;DHT22;10390;53.566;9.980;2022-08-11T06:07:29;28.50;1.00
20463;DHT22;10390;53.566;9.980;2022-08-11T06:09:57;28.50;1.00
20463;DHT22;10390;53.566;9.980;2022-08-11T06:12:28;28.60;1.00
20463;DHT22;10390;53.566;9.980;2022-08-11T06:15:00;28.60;1.00
20463;DHT22;10390;53.566;9.980;2022-08-11T06:17:31;28.60;1.00
20463;DHT22;10390;53.566;9.980;2022-08-11T06:20:04;28.60;1.00
20463;DHT22;10390;53.566;9.980;2022-08-11T06:22:38;28.60;1.00
20463;DHT22;10390;53.566;9.980;2022-08-11T06:25:08;28.70;1.00
20463;DHT22;10390;53.566;9.980;2022-08-11T06:27:36;28.70;1.00
20463;DHT22;10390;53.566;9.980;2022-08-11T06:30:04;28.70;1.00
20463;DHT22;10390;53.566;9.980;2022-08-11T06:32:40;28.80;1.00
20463;DHT22;10390;53.566;9.980;2022-08-11T06:38:22;28.80;1.00
20463;DHT22;10390;53.566;9.980;2022-08-11T06:44:15;28.80;1.00
20463;DHT22;10390;53.566;9.980;2022-08-11T06:46:51;28.80;1.00
20463;DHT22;10390;53.566;9.980;2022-08-11T06:49:23;29.00;1.00
20463;DHT22;10390;53.566;9.980;2022-08-11T06:52:35;28.90;1.00
20463;DHT22;10390;53.566;9.980;2022-08-11T06:55:13;28.90;1.00
20463;DHT22;10390;53.566;9.980;2022-08-11T06:58:19;29.00;1.00
20463;DHT22;10390;53.566;9.980;2022-08-11T07:01:08;28.90;1.00
20463;DHT22;10390;53.566;9.980;2022-08-11T07:03:52;29.00;1.00
20463;DHT22;10390;53.566;9.980;2022-08-11T07:06:39;29.00;1.00
20463;DHT22;10390;53.566;9.980;2022-08-11T07:12:52;29.00;1.00
20463;DHT22;10390;53.566;9.980;2022-08-11T07:15:39;29.00;1.00
20463;DHT22;10390;53.566;9.980;2022-08-11T07:18:11;29.00;1.00
20463;DHT22;10390;53.566;9.980;2022-08-11T07:21:10;29.10;1.00
20463;DHT22;10390;53.566;9.980;2022-08-11T07:24:00;29.10;1.00
20463;DHT22;10390;53.566;9.980;2022-08-11T07:26:52;29.10;1.00
20463;DHT22;10390;53.566;9.980;2022-08-11T07:29:41;29.10;1.00
20463;DHT22;10390;53.566;9.980;2022-08-11T07:32:30;29.10;1.00
20463;DHT22;10390;53.566;9.980;2022-08-11T07:35:21;29.20;1.00
20463;DHT22;10390;53.566;9.980;2022-08-11T07:37:56;29.20;1.00
20463;DHT22;10390;53.566;9.980;2022-08-11T07:40:25;29.20;1.00
20463;DHT22;10390;53.566;9.980;2022-08-11T07:42:52;29.20;1.00
20463;DHT22;10390;53.566;9.980;2022-08-11T07:45:20;29.20;1.00
20463;DHT22;10390;53.566;9.980;2022-08-11T07:48:06;29.20;1.00
20463;DHT22;10390;53.566;9.980;2022-08-11T07:50:56;29.30;1.00
20463;DHT22;10390;53.566;9.980;2022-08-11T07:53:41;29.20;1.00
20463;DHT22;10390;53.566;9.980;2022-08-11T07:56:08;29.30;1.00
20463;DHT22;10390;53.566;9.980;2022-08-11T07:58:35;29.30;1.00
20463;DHT22;10390;53.566;9.980;2022-08-11T08:01:22;29.40;1.00
20463;DHT22;10390;53.566;9.980;2022-08-11T08:04:09;29.30;1.00
20463;DHT22;10390;53.566;9.980;2022-08-11T08:06:56;29.40;1.00
20463;DHT22;10390;53.566;9.980;2022-08-11T08:09:42;29.40;1.00
20463;DHT22;10390;53.566;9.980;2022-08-11T08:12:28;29.30;1.00
20463;DHT22;10390;53.566;9.980;2022-08-11T08:15:14;29.40;1.00
20463;DHT22;10390;53.566;9.980;2022-08-11T08:18:02;29.40;1.00
20463;DHT22;10390;53.566;9.980;2022-08-11T08:20:45;29.40;1.00
20463;DHT22;10390;53.566;9.980;2022-08-11T08:23:15;29.40;1.00
20463;DHT22;10390;53.566;9.980;2022-08-11T08:25:44;29.40;1.00
20463;DHT22;10390;53.566;9.980;2022-08-11T08:28:13;29.50;1.00
20463;DHT22;10390;53.566;9.980;2022-08-11T08:30:42;29.50;1.00
20463;DHT22;10390;53.566;9.980;2022-08-11T08:33:50;29.50;1.00
20463;DHT22;10390;53.566;9.980;2022-08-11T08:36:10;29.50;1.00
20463;DHT22;10390;53.566;9.980;2022-08-11T08:38:51;29.60;1.00
20463;DHT22;10390;53.566;9.980;2022-08-11T08:41:24;29.60;1.00
20463;DHT22;10390;53.566;9.980;2022-08-11T08:43:57;29.60;1.00
20463;DHT22;10390;53.566;9.980;2022-08-11T08:46:32;29.60;1.00
20463;DHT22;10390;53.566;9.980;2022-08-11T08:49:01;29.60;1.00
20463;DHT22;10390;53.566;9.980;2022-08-11T08:51:31;29.60;1.00
20463;DHT22;10390;53.566;9.980;2022-08-11T08:54:13;29.70;1.00
20463;DHT22;10390;53.566;9.980;2022-08-11T08:56:43;29.70;1.00
20463;DHT22;10390;53.566;9.980;2022-08-11T08:59:12;29.70;1.00
20463;DHT22;10390;53.566;9.980;2022-08-11T09:01:57;29.70;1.00
20463;DHT22;10390;53.566;9.980;2022-08-11T09:04:26;29.80;1.00
20463;DHT22;10390;53.566;9.980;2022-08-11T09:06:55;29.80;1.00
20463;DHT22;10390;53.566;9.980;2022-08-11T09:09:24;29.80;1.00
20463;DHT22;10390;53.566;9.980;2022-08-11T09:11:50;29.80;1.00
20463;DHT22;10390;53.566;9.980;2022-08-11T09:14:25;29.80;1.00
20463;DHT22;10390;53.566;9.980;2022-08-11T09:17:17;29.80;1.00
20463;DHT22;10390;53.566;9.980;2022-08-11T09:19:45;29.80;1.00
20463;DHT22;10390;53.566;9.980;2022-08-11T09:22:12;29.90;1.00
20463;DHT22;10390;53.566;9.980;2022-08-11T09:25:02;29.90;1.00
20463;DHT22;10390;53.566;9.980;2022-08-11T09:27:49;29.90;1.00
20463;DHT22;10390;53.566;9.980;2022-08-11T09:30:15;29.90;1.00
20463;DHT22;10390;53.566;9.980;2022-08-11T09:32:43;29.90;1.00
20463;DHT22;10390;53.566;9.980;2022-08-11T09:35:10;29.90;1.00
20463;DHT22;10390;53.566;9.980;2022-08-11T09:37:36;29.90;1.00
20463;DHT22;10390;53.566;9.980;2022-08-11T09:40:23;29.90;1.00
20463;DHT22;10390;53.566;9.980;2022-08-11T09:42:57;29.90;1.00
20463;DHT22;10390;53.566;9.980;2022-08-11T09:45:45;29.90;1.00
20463;DHT22;10390;53.566;9.980;2022-08-11T09:48:19;29.90;1.00
20463;DHT22;10390;53.566;9.980;2022-08-11T09:50:49;29.90;1.00
20463;DHT22;10390;53.566;9.980;2022-08-11T09:53:19;30.00;1.00
20463;DHT22;10390;53.566;9.980;2022-08-11T09:55:46;29.90;1.00
20463;DHT22;10390;53.566;9.980;2022-08-11T09:58:14;30.00;1.00
20463;DHT22;10390;53.566;9.980;2022-08-11T10:00:46;29.90;1.00
20463;DHT22;10390;53.566;9.980;2022-08-11T10:03:17;30.00;1.00
20463;DHT22;10390;53.566;9.980;2022-08-11T10:06:05;30.00;1.00
20463;DHT22;10390;53.566;9.980;2022-08-11T10:08:51;30.00;1.00
20463;DHT22;10390;53.566;9.980;2022-08-11T10:11:21;30.00;1.00
20463;DHT22;10390;53.566;9.980;2022-08-11T10:13:51;30.00;1.00
20463;DHT22;10390;53.566;9.980;2022-08-11T10:16:39;30.00;1.00
20463;DHT22;10390;53.566;9.980;2022-08-11T10:19:09;30.00;1.00
20463;DHT22;10390;53.566;9.980;2022-08-11T10:21:45;30.00;1.00
20463;DHT22;10390;53.566;9.980;2022-08-11T10:24:32;30.00;1.00
20463;DHT22;10390;53.566;9.980;2022-08-11T10:27:17;29.90;1.00
20463;DHT22;10390;53.566;9.980;2022-08-11T10:29:43;29.90;1.00
20463;DHT22;10390;53.566;9.980;2022-08-11T10:32:28;29.90;1.00
20463;DHT22;10390;53.566;9.980;2022-08-11T10:35:14;29.90;1.00
20463;DHT22;10390;53.566;9.980;2022-08-11T10:37:42;29.90;1.00
20463;DHT22;10390;53.566;9.980;2022-08-11T10:40:13;29.90;1.00
20463;DHT22;10390;53.566;9.980;2022-08-11T10:42:40;29.90;1.00
20463;DHT22;10390;53.566;9.980;2022-08-11T10:45:26;29.90;1.00
20463;DHT22;10390;53.566;9.980;2022-08-11T10:48:13;29.90;1.00
20463;DHT22;10390;53.566;9.980;2022-08-11T10:50:44;29.90;1.00
20463;DHT22;10390;53.566;9.980;2022-08-11T10:53:30;29.90;1.00
20463;DHT22;10390;53.566;9.980;2022-08-11T10:56:16;29.90;1.00
20463;DHT22;10390;53.566;9.980;2022-08-11T10:59:01;29.90;1.00
20463;DHT22;10390;53.566;9.980;2022-08-11T11:01:34;29.90;1.00
20463;DHT22;10390;53.566;9.980;2022-08-11T11:04:12;29.90;1.00
20463;DHT22;10390;53.566;9.980;2022-08-11T11:07:05;29.80;1.00
20463;DHT22;10390;53.566;9.980;2022-08-11T11:09:45;29.90;1.00
20463;DHT22;10390;53.566;9.980;2022-08-11T11:15:08;29.80;1.00
20463;DHT22;10390;53.566;9.980;2022-08-11T11:17:58;29.80;1.00
20463;DHT22;10390;53.566;9.980;2022-08-11T11:20:38;29.80;1.00
20463;DHT22;10390;53.566;9.980;2022-08-11T11:37:48;29.80;1.00
20463;DHT22;10390;53.566;9.980;2022-08-11T11:40:17;29.80;1.00
20463;DHT22;10390;53.566;9.980;2022-08-11T11:42:48;29.80;1.00
20463;DHT22;10390;53.566;9.980;2022-08-11T11:45:21;29.80;1.00
20463;DHT22;10390;53.566;9.980;2022-08-11T11:47:49;29.80;1.00
20463;DHT22;10390;53.566;9.980;2022-08-11T11:50:32;29.80;1.00
20463;DHT22;10390;53.566;9.980;2022-08-11T11:53:03;29.80;1.00
20463;DHT22;10390;53.566;9.980;2022-08-11T11:55:31;29.80;1.00
20463;DHT22;10390;53.566;9.980;2022-08-11T11:58:00;29.80;1.00
20463;DHT22;10390;53.566;9.980;2022-08-11T12:00:46;29.80;1.00
20463;DHT22;10390;53.566;9.980;2022-08-11T12:03:33;29.80;1.00
20463;DHT22;10390;53.566;9.980;2022-08-11T12:05:59;29.80;1.00
20463;DHT22;10390;53.566;9.980;2022-08-11T12:08:28;29.80;1.00
20463;DHT22;10390;53.566;9.980;2022-08-11T12:10:57;29.80;1.00
20463;DHT22;10390;53.566;9.980;2022-08-11T12:13:48;29.80;1.00
20463;DHT22;10390;53.566;9.980;2022-08-11T12:16:18;29.80;1.00
20463;DHT22;10390;53.566;9.980;2022-08-11T12:18:48;29.80;1.00
20463;DHT22;10390;53.566;9.980;2022-08-11T12:21:16;29.80;1.00
20463;DHT22;10390;53.566;9.980;2022-08-11T12:23:44;29.80;1.00
20463;DHT22;10390;53.566;9.980;2022-08-11T12:26:30;29.80;1.00
20463;DHT22;10390;53.566;9.980;2022-08-11T12:29:23;29.80;1.00
20463;DHT22;10390;53.566;9.980;2022-08-11T12:31:53;29.80;1.00
20463;DHT22;10390;53.566;9.980;2022-08-11T12:34:20;29.80;1.00
20463;DHT22;10390;53.566;9.980;2022-08-11T12:39:30;29.80;1.00
20463;DHT22;10390;53.566;9.980;2022-08-11T12:42:17;29.80;1.00
20463;DHT22;10390;53.566;9.980;2022-08-11T12:45:06;29.70;1.00
20463;DHT22;10390;53.566;9.980;2022-08-11T12:48:17;29.70;1.00
20463;DHT22;10390;53.566;9.980;2022-08-11T12:51:08;29.70;1.00
20463;DHT22;10390;53.566;9.980;2022-08-11T12:54:07;29.70;1.00
20463;DHT22;10390;53.566;9.980;2022-08-11T12:56:47;29.70;1.00
20463;DHT22;10390;53.566;9.980;2022-08-11T12:59:49;29.70;1.00
20463;DHT22;10390;53.566;9.980;2022-08-11T13:02:34;29.70;1.00
20463;DHT22;10390;53.566;9.980;2022-08-11T13:05:19;29.70;1.00
20463;DHT22;10390;53.566;9.980;2022-08-11T13:07:46;29.70;1.00
20463;DHT22;10390;53.566;9.980;2022-08-11T13:10:17;29.70;1.00
20463;DHT22;10390;53.566;9.980;2022-08-11T13:13:03;29.70;1.00
20463;DHT22;10390;53.566;9.980;2022-08-11T13:15:31;29.70;1.00
20463;DHT22;10390;53.566;9.980;2022-08-11T13:17:58;29.70;1.00
20463;DHT22;10390;53.566;9.980;2022-08-11T13:20:25;29.70;1.00
20463;DHT22;10390;53.566;9.980;2022-08-11T13:22:53;29.70;1.00
20463;DHT22;10390;53.566;9.980;2022-08-11T13:25:24;29.70;1.00
20463;DHT22;10390;53.566;9.980;2022-08-11T13:27:52;29.70;1.00
20463;DHT22;10390;53.566;9.980;2022-08-11T13:30:24;29.70;1.00
20463;DHT22;10390;53.566;9.980;2022-08-11T13:33:12;29.70;1.00
20463;DHT22;10390;53.566;9.980;2022-08-11T13:35:38;29.70;1.00
20463;DHT22;10390;53.566;9.980;2022-08-11T13:38:07;29.60;1.00
20463;DHT22;10390;53.566;9.980;2022-08-11T13:40:39;29.70;1.00
20463;DHT22;10390;53.566;9.980;2022-08-11T13:43:06;29.70;1.00
20463;DHT22;10390;53.566;9.980;2022-08-11T13:45:34;29.70;1.00
20463;DHT22;10390;53.566;9.980;2022-08-11T13:48:03;29.60;1.00
20463;DHT22;10390;53.566;9.980;2022-08-11T13:50:31;29.70;1.00
20463;DHT22;10390;53.566;9.980;2022-08-11T13:53:23;29.70;1.00
20463;DHT22;10390;53.566;9.980;2022-08-11T13:55:50;29.70;1.00
20463;DHT22;10390;53.566;9.980;2022-08-11T13:58:16;29.70;1.00
20463;DHT22;10390;53.566;9.980;2022-08-11T14:00:49;29.70;1.00
20463;DHT22;10390;53.566;9.980;2022-08-11T14:03:19;29.70;1.00
20463;DHT22;10390;53.566;9.980;2022-08-11T14:05:51;29.70;1.00
20463;DHT22;10390;53.566;9.980;2022-08-11T14:08:29;29.70;1.00
20463;DHT22;10390;53.566;9.980;2022-08-11T14:11:01;29.70;1.00
20463;DHT22;10390;53.566;9.980;2022-08-11T14:13:49;29.70;1.00
20463;DHT22;10390;53.566;9.980;2022-08-11T14:16:23;29.70;1.00
20463;DHT22;10390;53.566;9.980;2022-08-11T14:18:54;29.70;1.00
20463;DHT22;10390;53.566;9.980;2022-08-11T14:21:23;29.70;1.00
20463;DHT22;10390;53.566;9.980;2022-08-11T14:24:08;29.70;1.00
20463;DHT22;10390;53.566;9.980;2022-08-11T14:26:36;29.70;1.00
20463;DHT22;10390;53.566;9.980;2022-08-11T14:29:09;29.70;1.00
20463;DHT22;10390;53.566;9.980;2022-08-11T14:31:44;29.70;1.00
20463;DHT22;10390;53.566;9.980;2022-08-11T14:34:12;29.70;1.00
20463;DHT22;10390;53.566;9.980;2022-08-11T14:36:42;29.70;1.00
20463;DHT22;10390;53.566;9.980;2022-08-11T14:39:15;29.70;1.00
20463;DHT22;10390;53.566;9.980;2022-08-11T14:41:46;29.70;1.00
20463;DHT22;10390;53.566;9.980;2022-08-11T14:44:35;29.70;1.00
20463;DHT22;10390;53.566;9.980;2022-08-11T14:47:21;29.70;1.00
20463;DHT22;10390;53.566;9.980;2022-08-11T14:49:48;29.70;1.00
20463;DHT22;10390;53.566;9.980;2022-08-11T14:52:17;29.70;1.00
20463;DHT22;10390;53.566;9.980;2022-08-11T14:54:47;29.70;1.00
20463;DHT22;10390;53.566;9.980;2022-08-11T14:57:36;29.70;1.00
20463;DHT22;10390;53.566;9.980;2022-08-11T15:00:06;29.70;1.00
20463;DHT22;10390;53.566;9.980;2022-08-11T15:02:36;29.70;1.00
20463;DHT22;10390;53.566;9.980;2022-08-11T15:05:23;29.70;1.00
20463;DHT22;10390;53.566;9.980;2022-08-11T15:07:54;29.70;1.00
20463;DHT22;10390;53.566;9.980;2022-08-11T15:10:21;29.70;1.00
20463;DHT22;10390;53.566;9.980;2022-08-11T15:12:48;29.70;1.00
20463;DHT22;10390;53.566;9.980;2022-08-11T15:15:15;29.70;1.00
20463;DHT22;10390;53.566;9.980;2022-08-11T15:18:02;29.70;1.00
20463;DHT22;10390;53.566;9.980;2022-08-11T15:20:31;29.70;1.00
20463;DHT22;10390;53.566;9.980;2022-08-11T15:23:16;29.70;1.00
20463;DHT22;10390;53.566;9.980;2022-08-11T15:26:05;29.70;1.00
20463;DHT22;10390;53.566;9.980;2022-08-11T15:28:39;29.70;1.00
20463;DHT22;10390;53.566;9.980;2022-08-11T15:31:28;29.70;1.00
20463;DHT22;10390;53.566;9.980;2022-08-11T15:34:08;29.70;1.00
20463;DHT22;10390;53.566;9.980;2022-08-11T15:36:58;29.70;1.00
20463;DHT22;10390;53.566;9.980;2022-08-11T15:39:50;29.70;1.00
20463;DHT22;10390;53.566;9.980;2022-08-11T15:45:37;29.70;1.00
20463;DHT22;10390;53.566;9.980;2022-08-11T15:48:43;29.70;1.00
20463;DHT22;10390;53.566;9.980;2022-08-11T15:51:18;29.70;1.00
20463;DHT22;10390;53.566;9.980;2022-08-11T15:54:08;29.80;1.00
20463;DHT22;10390;53.566;9.980;2022-08-11T15:56:42;29.70;1.00
20463;DHT22;10390;53.566;9.980;2022-08-11T15:59:12;29.70;1.00
20463;DHT22;10390;53.566;9.980;2022-08-11T16:01:59;29.80;1.00
20463;DHT22;10390;53.566;9.980;2022-08-11T16:04:46;29.80;1.00
20463;DHT22;10390;53.566;9.980;2022-08-11T16:07:15;29.70;1.00
20463;DHT22;10390;53.566;9.980;2022-08-11T16:09:54;29.80;1.00
20463;DHT22;10390;53.566;9.980;2022-08-11T16:12:25;29.80;1.00
20463;DHT22;10390;53.566;9.980;2022-08-11T16:15:02;29.80;1.00
20463;DHT22;10390;53.566;9.980;2022-08-11T16:18:00;29.80;1.00
20463;DHT22;10390;53.566;9.980;2022-08-11T16:20:28;29.80;1.00
20463;DHT22;10390;53.566;9.980;2022-08-11T16:23:01;29.80;1.00
20463;DHT22;10390;53.566;9.980;2022-08-11T16:25:29;29.70;1.00
20463;DHT22;10390;53.566;9.980;2022-08-11T16:28:02;29.80;1.00
20463;DHT22;10390;53.566;9.980;2022-08-11T16:30:39;29.80;1.00
20463;DHT22;10390;53.566;9.980;2022-08-11T16:33:07;29.80;1.00
20463;DHT22;10390;53.566;9.980;2022-08-11T16:35:35;29.90;1.00
20463;DHT22;10390;53.566;9.980;2022-08-11T16:38:24;29.80;1.00
20463;DHT22;10390;53.566;9.980;2022-08-11T16:41:13;29.80;1.00
20463;DHT22;10390;53.566;9.980;2022-08-11T16:44:02;29.80;1.00
20463;DHT22;10390;53.566;9.980;2022-08-11T16:46:47;29.80;1.00
20463;DHT22;10390;53.566;9.980;2022-08-11T16:49:30;29.80;1.00
20463;DHT22;10390;53.566;9.980;2022-08-11T16:51:59;29.90;1.00
20463;DHT22;10390;53.566;9.980;2022-08-11T16:54:35;29.90;1.00
20463;DHT22;10390;53.566;9.980;2022-08-11T16:57:04;29.80;1.00
20463;DHT22;10390;53.566;9.980;2022-08-11T16:59:56;29.90;1.00
20463;DHT22;10390;53.566;9.980;2022-08-11T17:02:24;29.80;1.00
20463;DHT22;10390;53.566;9.980;2022-08-11T17:05:17;29.90;1.00
20463;DHT22;10390;53.566;9.980;2022-08-11T17:08:06;29.90;1.00
20463;DHT22;10390;53.566;9.980;2022-08-11T17:10:58;29.90;1.00
20463;DHT22;10390;53.566;9.980;2022-08-11T17:13:58;29.90;1.00
20463;DHT22;10390;53.566;9.980;2022-08-11T17:16:32;29.90;1.00
20463;DHT22;10390;53.566;9.980;2022-08-11T17:19:10;29.90;1.00
20463;DHT22;10390;53.566;9.980;2022-08-11T17:21:45;29.90;1.00
20463;DHT22;10390;53.566;9.980;2022-08-11T17:24:36;29.90;1.00
20463;DHT22;10390;53.566;9.980;2022-08-11T17:27:07;29.90;1.00
20463;DHT22;10390;53.566;9.980;2022-08-11T17:29:41;29.90;1.00
20463;DHT22;10390;53.566;9.980;2022-08-11T17:32:12;29.90;1.00
20463;DHT22;10390;53.566;9.980;2022-08-11T17:35:03;29.90;1.00
20463;DHT22;10390;53.566;9.980;2022-08-11T17:37:56;29.90;1.00
20463;DHT22;10390;53.566;9.980;2022-08-11T17:40:30;29.90;1.00
20463;DHT22;10390;53.566;9.980;2022-08-11T17:42:59;29.90;1.00
20463;DHT22;10390;53.566;9.980;2022-08-11T17:45:47;29.90;1.00
20463;DHT22;10390;53.566;9.980;2022-08-11T17:48:42;29.90;1.00
20463;DHT22;10390;53.566;9.980;2022-08-11T17:51:16;29.90;1.00
20463;DHT22;10390;53.566;9.980;2022-08-11T17:54:04;29.90;1.00
20463;DHT22;10390;53.566;9.980;2022-08-11T17:56:51;29.90;1.00
20463;DHT22;10390;53.566;9.980;2022-08-11T17:59:38;29.90;1.00
20463;DHT22;10390;53.566;9.980;2022-08-11T18:05:19;29.90;1.00
20463;DHT22;10390;53.566;9.980;2022-08-11T18:07:50;29.90;1.00
20463;DHT22;10390;53.566;9.980;2022-08-11T18:10:38;29.90;1.00
20463;DHT22;10390;53.566;9.980;2022-08-11T18:13:24;29.90;1.00
20463;DHT22;10390;53.566;9.980;2022-08-11T18:16:11;29.90;1.00
20463;DHT22;10390;53.566;9.980;2022-08-11T18:18:56;29.90;1.00
20463;DHT22;10390;53.566;9.980;2022-08-11T18:21:45;29.90;1.00
20463;DHT22;10390;53.566;9.980;2022-08-11T18:24:37;29.90;1.00
20463;DHT22;10390;53.566;9.980;2022-08-11T18:27:27;29.90;1.00
20463;DHT22;10390;53.566;9.980;2022-08-11T18:30:15;29.90;1.00
20463;DHT22;10390;53.566;9.980;2022-08-11T18:33:01;29.90;1.00
20463;DHT22;10390;53.566;9.980;2022-08-11T18:35:54;29.90;1.00
20463;DHT22;10390;53.566;9.980;2022-08-11T18:38:45;29.90;1.00
20463;DHT22;10390;53.566;9.980;2022-08-11T18:41:32;29.90;1.00
20463;DHT22;10390;53.566;9.980;2022-08-11T18:44:20;29.90;1.00
20463;DHT22;10390;53.566;9.980;2022-08-11T18:47:12;29.90;1.00
20463;DHT22;10390;53.566;9.980;2022-08-11T18:49:59;29.90;1.00
20463;DHT22;10390;53.566;9.980;2022-08-11T18:52:47;29.90;1.00
20463;DHT22;10390;53.566;9.980;2022-08-11T18:55:35;29.90;1.00
20463;DHT22;10390;53.566;9.980;2022-08-11T18:58:26;29.90;1.00
20463;DHT22;10390;53.566;9.980;2022-08-11T19:01:15;29.90;1.00
20463;DHT22;10390;53.566;9.980;2022-08-11T19:04:02;29.90;1.00
20463;DHT22;10390;53.566;9.980;2022-08-11T19:06:54;29.90;1.00
20463;DHT22;10390;53.566;9.980;2022-08-11T19:09:44;29.90;1.00
20463;DHT22;10390;53.566;9.980;2022-08-11T19:12:33;29.90;1.00
20463;DHT22;10390;53.566;9.980;2022-08-11T19:15:19;29.90;1.00
20463;DHT22;10390;53.566;9.980;2022-08-11T19:18:04;29.90;1.00
20463;DHT22;10390;53.566;9.980;2022-08-11T19:20:51;29.90;1.00
20463;DHT22;10390;53.566;9.980;2022-08-11T19:23:42;29.90;1.00
20463;DHT22;10390;53.566;9.980;2022-08-11T19:26:28;29.90;1.00
20463;DHT22;10390;53.566;9.980;2022-08-11T19:29:14;29.90;1.00
20463;DHT22;10390;53.566;9.980;2022-08-11T19:31:59;29.90;1.00
20463;DHT22;10390;53.566;9.980;2022-08-11T19:34:45;29.90;1.00
20463;DHT22;10390;53.566;9.980;2022-08-11T19:37:32;29.90;1.00
20463;DHT22;10390;53.566;9.980;2022-08-11T19:40:18;29.90;1.00
20463;DHT22;10390;53.566;9.980;2022-08-11T19:43:04;29.90;1.00
20463;DHT22;10390;53.566;9.980;2022-08-11T19:45:51;29.90;1.00
20463;DHT22;10390;53.566;9.980;2022-08-11T19:48:39;29.90;1.00
20463;DHT22;10390;53.566;9.980;2022-08-11T19:51:23;29.90;1.00
20463;DHT22;10390;53.566;9.980;2022-08-11T19:54:08;29.90;1.00
20463;DHT22;10390;53.566;9.980;2022-08-11T19:56:53;29.90;1.00
20463;DHT22;10390;53.566;9.980;2022-08-11T19:59:38;29.90;1.00
20463;DHT22;10390;53.566;9.980;2022-08-11T20:02:23;29.90;1.00
20463;DHT22;10390;53.566;9.980;2022-08-11T20:05:07;29.90;1.00
20463;DHT22;10390;53.566;9.980;2022-08-11T20:07:54;29.90;1.00
20463;DHT22;10390;53.566;9.980;2022-08-11T20:10:40;29.90;1.00
20463;DHT22;10390;53.566;9.980;2022-08-11T20:13:26;29.90;1.00
20463;DHT22;10390;53.566;9.980;2022-08-11T20:16:13;29.90;1.00
20463;DHT22;10390;53.566;9.980;2022-08-11T20:19:01;29.90;1.00
20463;DHT22;10390;53.566;9.980;2022-08-11T20:21:47;29.90;1.00
20463;DHT22;10390;53.566;9.980;2022-08-11T20:24:34;29.90;1.00
20463;DHT22;10390;53.566;9.980;2022-08-11T20:27:21;29.90;1.00
20463;DHT22;10390;53.566;9.980;2022-08-11T20:30:06;29.90;1.00
20463;DHT22;10390;53.566;9.980;2022-08-11T20:32:51;29.90;1.00
20463;DHT22;10390;53.566;9.980;2022-08-11T20:35:37;29.90;1.00